Latest Weather Observations for Cape Jaffa

IDS60801

Issued at 12:31 pm CDT Tuesday 28 March 2017 (issued every 30 minutes, with the page automatically refreshed every 10 minutes)

About weather observations | Map of weather stations | Latest weather observations for SA | Other Formats
Station Details ID: 026095 Name: THE LIMESTONE Lat: -36.97 Lon: 139.72 Height: 17.0 m
Data from the previous 72 hours. | See also: Recent months at Cape Jaffa
Date/Time
CDT
Temp
°C
App
Temp
°C
Dew
Point
°C
Rel
Hum
%
Delta-T
°C
Wind Press
QNH
hPa
Press
MSL
hPa
Rain since
9am
mm
Dir  Spd
km/h
Gust
km/h
Spd
kts
Gust
kts
28/12:00pm 19.2 15.3 12.2 64 3.9 WNW 24 30 13 16 1014.8 1014.7 0.0
28/11:30am 19.7 16.1 11.7 60 4.4 WNW 22 28 12 15 1014.8 1014.7 0.0
28/11:00am 19.9 15.8 11.4 58 4.7 WNW 24 32 13 17 1015.0 1014.9 0.0
28/10:30am 19.4 15.4 11.9 62 4.2 WNW 24 30 13 16 1014.9 1014.8 0.0
28/10:00am 18.7 15.4 12.7 68 3.4 WNW 22 28 12 15 1014.8 1014.7 0.0
28/09:30am 17.6 14.6 12.5 72 2.8 WNW 20 24 11 13 1014.8 1014.7 0.0
28/09:00am 16.5 14.7 13.2 81 1.8 W 15 17 8 9 1014.5 1014.4 0.8
28/08:30am 17.2 16.6 13.5 79 2.1 NW 9 13 5 7 1014.3 1014.2 0.8
28/08:00am 15.9 14.6 12.5 80 1.9 NW 11 15 6 8 1014.3 1014.2 0.8
28/07:30am 16.5 14.6 11.9 74 2.5 WNW 13 19 7 10 1014.3 1014.2 0.8
28/07:00am 15.6 13.6 11.6 77 2.2 WNW 13 17 7 9 1014.1 1014.0 0.8
28/06:30am 15.5 13.1 11.3 76 2.3 W 15 20 8 11 1014.0 1013.9 0.8
28/06:00am 15.8 13.0 11.2 74 2.5 WNW 17 24 9 13 1014.1 1014.0 0.8
28/05:30am 15.7 12.5 11.1 74 2.5 WNW 19 24 10 13 1014.0 1013.9 0.8
28/05:00am 15.9 12.7 11.1 73 2.6 WNW 19 22 10 12 1013.8 1013.7 0.8
28/04:30am 15.6 13.2 11.4 76 2.3 WNW 15 22 8 12 1014.0 1013.9 0.8
28/04:00am 15.7 13.4 11.9 78 2.1 WNW 15 20 8 11 1014.1 1014.0 0.8
28/03:30am 15.5 13.1 11.5 77 2.2 W 15 20 8 11 1014.2 1014.1 0.8
28/03:00am 15.8 12.6 11.4 75 2.4 WNW 19 24 10 13 1014.2 1014.1 0.8
28/02:30am 15.6 12.8 11.2 75 2.4 W 17 22 9 12 1014.4 1014.3 0.8
28/02:00am 15.7 12.5 11.3 75 2.4 W 19 22 10 12 1014.4 1014.3 0.8
28/01:30am 16.2 12.9 11.6 74 2.5 W 20 28 11 15 1014.7 1014.6 0.8
28/01:00am 15.8 13.0 11.4 75 2.4 W 17 22 9 12 1014.7 1014.6 0.8
28/12:30am 16.0 12.7 11.6 75 2.4 W 20 28 11 15 1014.6 1014.5 0.8
28/12:00am 16.2 12.6 11.8 75 2.4 W 22 28 12 15 1014.7 1014.6 0.8
 
Date/Time
CDT
Temp
°C
App
Temp
°C
Dew
Point
°C
Rel
Hum
%
Delta-T
°C
Wind Press
QNH
hPa
Press
MSL
hPa
Rain since
9am
mm
Dir  Spd
km/h
Gust
km/h
Spd
kts
Gust
kts
27/11:30pm 16.1 12.8 11.5 74 2.5 W 20 28 11 15 1014.6 1014.5 0.8
27/11:00pm 16.2 13.0 11.8 75 2.4 WNW 20 28 11 15 1014.4 1014.3 0.8
27/10:30pm 16.1 13.5 12.1 77 2.2 WNW 17 22 9 12 1014.4 1014.3 0.8
27/10:00pm 15.6 13.7 11.8 78 2.1 WNW 13 17 7 9 1014.4 1014.3 0.8
27/09:30pm 16.0 13.7 11.8 76 2.3 W 15 20 8 11 1014.4 1014.3 0.8
27/09:00pm 16.4 13.2 11.8 74 2.5 W 20 28 11 15 1014.4 1014.3 0.8
27/08:30pm 16.4 13.4 12.4 77 2.2 W 20 30 11 16 1014.1 1014.0 0.8
27/08:00pm 16.5 14.1 12.7 78 2.1 W 17 24 9 13 1013.8 1013.7 0.8
27/07:30pm 16.9 13.2 12.6 76 2.4 W 24 30 13 16 1013.8 1013.7 0.8
27/07:00pm 17.2 13.8 12.5 74 2.6 W 22 30 12 16 1013.5 1013.4 0.8
27/06:30pm 18.2 14.9 12.9 71 3.0 W 22 32 12 17 1013.3 1013.2 0.8
27/06:00pm 18.8 14.4 12.8 68 3.4 W 28 35 15 19 1013.1 1013.0 0.8
27/05:30pm 19.2 13.8 12.7 66 3.7 W 33 43 18 23 1012.8 1012.7 0.8
27/05:00pm 19.7 15.1 13.6 68 3.5 WNW 30 43 16 23 1012.7 1012.6 0.8
27/04:30pm 20.6 16.9 14.0 66 3.8 WNW 26 35 14 19 1012.6 1012.5 0.8
27/04:00pm 20.2 15.4 12.9 63 4.1 WNW 30 39 16 21 1012.4 1012.3 0.8
27/03:30pm 20.3 15.1 12.8 62 4.2 WNW 32 41 17 22 1012.3 1012.2 0.8
27/03:00pm 20.5 15.8 13.2 63 4.2 WNW 30 37 16 20 1012.2 1012.1 0.8
27/02:30pm 20.5 15.4 13.2 63 4.2 WNW 32 41 17 22 1012.4 1012.3 0.8
27/02:00pm 20.4 15.5 13.8 66 3.8 WNW 32 39 17 21 1012.7 1012.6 0.8
27/01:30pm 20.3 16.4 14.4 69 3.4 WNW 28 37 15 20 1012.5 1012.4 0.8
27/01:00pm 20.1 16.1 14.2 69 3.4 WNW 28 35 15 19 1012.5 1012.4 0.8
27/12:30pm 19.6 15.4 14.6 73 2.9 WNW 30 39 16 21 1012.3 1012.2 0.8
27/12:00pm 18.6 16.0 14.9 79 2.2 WNW 22 32 12 17 1012.2 1012.1 0.8
27/11:30am 17.7 15.3 14.4 81 1.9 WNW 20 32 11 17 1011.9 1011.8 0.8
27/11:00am 16.9 15.2 13.6 81 1.9 WNW 15 22 8 12 1011.8 1011.7 0.8
27/10:30am 16.5 14.2 14.2 86 1.3 W 19 28 10 15 1011.4 1011.3 0.6
27/10:00am 17.1 12.9 13.6 80 2.0 W 28 43 15 23 1011.4 1011.3 0.0
27/09:30am 17.6 12.5 13.7 78 2.2 W 33 44 18 24 1010.7 1010.6 0.0
27/09:00am 17.8 12.0 13.9 78 2.2 W 37 50 20 27 1009.4 1009.3 0.0
27/08:30am 18.1 13.3 14.0 77 2.3 W 32 43 17 23 1008.4 1008.3 0.0
27/08:00am 18.2 13.7 14.9 81 1.9 W 32 43 17 23 1008.0 1007.9 0.0
27/07:30am 18.3 15.4 16.1 87 1.3 W 26 32 14 17 1006.9 1006.8 0.0
27/07:00am 18.6 16.7 16.8 89 1.1 W 22 28 12 15 1005.9 1005.8 0.0
27/06:30am 18.9 16.7 16.9 88 1.2 W 24 32 13 17 1005.1 1005.0 0.0
27/06:00am 19.1 15.4 16.9 87 1.3 W 32 41 17 22 1004.0 1004.0 0.0
27/05:30am 19.5 15.4 16.5 83 1.8 W 33 46 18 25 1003.3 1003.3 0.0
27/05:00am 21.7 18.1 16.2 71 3.3 WNW 30 44 16 24 1002.7 1002.7 0.0
27/04:30am 23.7 19.3 15.7 61 4.8 NW 33 43 18 23 1002.1 1002.1 0.0
27/04:23am 24.4 19.6 15.6 58 5.3 NNW 35 52 19 28 1001.8 1001.8 0.0
27/04:18am 24.9 20.3 16.1 58 5.4 NNW 35 52 19 28 1000.8 1000.8 0.0
27/04:11am 25.1 20.1 15.1 53 6.0 N 35 50 19 27 1001.9 1001.9 0.0
27/04:00am 26.3 20.0 14.7 48 7.0 NNE 41 54 22 29 999.5 999.5 0.0
27/03:30am 25.1 21.4 15.1 53 6.0 NNE 28 35 15 19 1000.1 1000.1 0.0
27/03:00am 25.7 21.1 15.1 52 6.4 NNE 33 44 18 24 1001.0 1001.0 0.0
27/02:30am 25.5 20.8 14.9 52 6.4 NE 33 46 18 25 1001.1 1001.1 0.0
27/02:00am 25.6 19.7 14.7 51 6.5 NE 39 48 21 26 1001.6 1001.6 0.0
27/01:30am 25.9 20.0 14.7 50 6.7 NE 39 48 21 26 1002.3 1002.3 0.0
27/01:00am 25.4 21.0 15.1 53 6.2 NE 32 43 17 23 1002.9 1002.9 0.0
27/12:30am 25.6 21.0 14.7 51 6.5 NE 32 41 17 22 1003.6 1003.6 0.0
27/12:00am 25.1 20.6 14.9 53 6.1 NE 32 39 17 21 1004.2 1004.2 0.0
 
Date/Time
CDT
Temp
°C
App
Temp
°C
Dew
Point
°C
Rel
Hum
%
Delta-T
°C
Wind Press
QNH
hPa
Press
MSL
hPa
Rain since
9am
mm
Dir  Spd
km/h
Gust
km/h
Spd
kts
Gust
kts
26/11:30pm 23.9 20.4 15.4 59 5.1 NE 28 33 15 18 1005.0 1004.9 0.0
26/11:00pm 22.8 20.2 15.9 65 4.2 NE 24 28 13 15 1005.6 1005.5 0.0
26/10:30pm 22.5 20.4 16.1 67 3.9 ENE 22 28 12 15 1006.2 1006.1 0.0
26/10:00pm 22.6 20.7 16.6 69 3.7 ENE 22 28 12 15 1006.7 1006.6 0.0
26/09:30pm 22.9 20.8 17.1 70 3.6 NE 24 28 13 15 1007.0 1006.9 0.0
26/09:00pm 22.4 20.4 17.5 74 3.0 ENE 24 28 13 15 1007.1 1007.0 0.0
26/08:30pm 22.4 22.3 17.8 75 2.9 ENE 15 19 8 10 1008.2 1008.1 0.0
26/08:00pm 22.6 22.4 17.7 74 3.0 ENE 15 20 8 11 1008.0 1007.9 0.0
26/07:30pm 22.8 22.9 17.5 72 3.3 ENE 13 19 7 10 1008.0 1007.9 0.0
26/07:00pm 23.2 23.3 17.4 70 3.6 ENE 13 17 7 9 1008.1 1008.0 0.0
26/06:30pm 23.7 22.6 17.4 68 3.9 NE 19 22 10 12 1008.2 1008.1 0.0
26/06:00pm 23.7 22.5 17.4 68 3.9 NE 20 26 11 14 1008.5 1008.4 0.0
26/05:30pm 23.6 22.2 17.1 67 4.0 NE 20 26 11 14 1008.8 1008.7 0.0
26/05:00pm 23.5 22.2 16.8 66 4.1 NE 19 26 10 14 1009.1 1009.0 0.0
26/04:30pm 22.9 21.9 16.7 68 3.8 NE 17 24 9 13 1009.5 1009.4 0.0
26/04:00pm 21.6 21.7 16.6 73 3.0 N 11 15 6 8 1010.2 1010.1 0.0
26/03:30pm 21.8 21.6 16.7 73 3.1 NNW 13 19 7 10 1010.7 1010.6 0.0
26/03:00pm 23.3 22.4 16.8 67 4.0 NE 17 22 9 12 1010.4 1010.3 0.0
26/02:30pm 21.4 21.1 16.4 73 3.0 NE 13 17 7 9 1010.9 1010.8 0.0
26/02:00pm 21.1 20.5 15.6 71 3.3 N 13 15 7 8 1011.9 1011.8 0.0
26/01:30pm 22.4 22.7 16.0 67 3.9 NE 9 13 5 7 1012.1 1012.0 0.0
26/01:00pm 21.8 21.3 15.9 69 3.5 N 13 19 7 10 1013.0 1012.9 0.0
26/12:30pm 21.1 21.2 15.4 70 3.4 NNE 9 13 5 7 1013.5 1013.4 0.0
26/12:00pm 21.1 21.6 15.0 68 3.6 NE 6 11 3 6 1014.1 1014.0 0.0
26/11:30am 20.7 19.8 14.8 69 3.5 E 13 17 7 9 1014.1 1014.0 0.0
26/11:00am 20.5 19.8 15.5 73 3.0 ENE 13 17 7 9 1014.1 1014.0 0.0
26/10:30am 19.7 18.4 14.7 73 2.9 ENE 15 20 8 11 1014.2 1014.1 0.0
26/10:00am 18.8 17.0 14.5 76 2.5 E 17 22 9 12 1013.9 1013.8 0.0
26/09:30am 18.0 16.5 14.3 79 2.1 E 15 20 8 11 1013.7 1013.6 0.0
26/09:00am 17.4 17.0 14.1 81 1.9 ESE 9 13 5 7 1014.3 1014.2 0.0
26/08:30am 16.9 17.0 14.0 83 1.6 SE 6 9 3 5 1014.5 1014.4 0.0
26/08:00am 16.5 16.6 13.8 84 1.5 ESE 6 9 3 5 1014.4 1014.3 0.0
26/07:30am 16.6 16.7 13.9 84 1.5 SE 6 9 3 5 1014.4 1014.3 0.0
26/07:00am 16.5 16.6 13.8 84 1.5 SSE 6 7 3 4 1014.0 1013.9 0.0
26/06:30am 16.6 16.4 13.7 83 1.6 SSE 7 11 4 6 1013.6 1013.5 0.0
26/06:00am 16.6 16.4 13.7 83 1.6 SSE 7 9 4 5 1013.4 1013.3 0.0
26/05:30am 16.7 16.8 13.8 83 1.6 SE 6 7 3 4 1013.5 1013.4 0.0
26/05:00am 16.9 17.4 14.0 83 1.6 SSE 4 7 2 4 1013.3 1013.2 0.0
26/04:30am 17.1 17.2 14.0 82 1.8 SE 6 9 3 5 1013.3 1013.2 0.0
26/04:00am 17.2 17.4 14.1 82 1.8 SE 6 7 3 4 1013.5 1013.4 0.0
26/03:30am 17.4 17.6 14.1 81 1.9 SSE 6 9 3 5 1014.0 1013.9 0.0
26/03:00am 17.4 17.6 14.1 81 1.9 SSE 6 7 3 4 1014.0 1013.9 0.0
26/02:30am 17.4 18.0 14.3 82 1.8 SE 4 7 2 4 1014.0 1013.9 0.0
26/02:00am 17.5 17.7 14.2 81 1.9 SE 6 9 3 5 1014.4 1014.3 0.0
26/01:30am 17.5 17.7 14.2 81 1.9 SSE 6 9 3 5 1014.6 1014.5 0.0
26/01:00am 17.7 17.9 14.6 82 1.8 SE 7 11 4 6 1014.7 1014.6 0.0
26/12:30am 17.7 17.9 14.6 82 1.8 SE 7 15 4 8 1015.0 1014.9 0.0
26/12:00am 17.7 17.5 14.6 82 1.8 SE 9 13 5 7 1014.6 1014.5 0.0
 
Date/Time
CDT
Temp
°C
App
Temp
°C
Dew
Point
°C
Rel
Hum
%
Delta-T
°C
Wind Press
QNH
hPa
Press
MSL
hPa
Rain since
9am
mm
Dir  Spd
km/h
Gust
km/h
Spd
kts
Gust
kts
25/11:30pm 17.8 17.6 14.7 82 1.8 SSE 9 13 5 7 1014.7 1014.6 0.0
25/11:00pm 17.8 17.2 14.7 82 1.8 SSE 11 20 6 11 1014.8 1014.7 0.0
25/10:30pm 17.6 16.7 14.9 84 1.6 S 13 17 7 9 1015.2 1015.1 0.0
25/10:00pm 18.0 17.3 15.3 84 1.6 S 13 17 7 9 1015.5 1015.4 0.0
25/09:30pm 18.2 17.2 14.7 80 2.0 SSW 13 17 7 9 1015.6 1015.5 0.0
25/09:00pm 18.0 17.8 14.7 81 1.9 S 9 15 5 8 1014.9 1014.8 0.0
25/08:30pm 17.6 16.2 14.5 82 1.8 S 15 19 8 10 1014.5 1014.4 0.0
25/08:00pm 17.3 15.9 14.6 84 1.6 SSW 15 19 8 10 1014.5 1014.4 0.0
25/07:30pm 17.5 17.2 15.5 88 1.2 SW 11 15 6 8 1014.2 1014.1 0.0
25/07:00pm 17.6 17.0 15.6 88 1.2 SSW 13 17 7 9 1013.7 1013.6 0.0
25/06:30pm 18.0 16.5 15.3 84 1.6 SSW 17 20 9 11 1013.6 1013.5 0.0
25/06:00pm 18.9 17.9 15.6 81 1.9 SW 15 20 8 11 1013.7 1013.6 0.0
25/05:30pm 19.2 17.3 15.3 78 2.3 SSW 19 22 10 12 1013.3 1013.2 0.0
25/05:00pm 19.8 18.5 15.7 77 2.4 SW 17 20 9 11 1013.5 1013.4 0.0
25/04:30pm 19.2 17.3 15.1 77 2.4 SW 19 26 10 14 1013.2 1013.1 0.0
25/04:00pm 20.3 19.0 15.7 75 2.7 SW 17 22 9 12 1013.4 1013.3 0.0
25/03:30pm 20.0 18.7 15.8 77 2.5 SW 17 22 9 12 1013.4 1013.3 0.0
25/03:00pm 19.4 17.3 15.3 77 2.4 SW 20 26 11 14 1013.1 1013.0 0.0
25/02:30pm 19.9 18.0 15.7 77 2.5 SW 20 26 11 14 1013.5 1013.4 0.0
25/02:00pm 18.9 16.9 15.6 81 1.9 SW 20 26 11 14 1013.5 1013.4 0.0
25/01:30pm 19.0 17.8 16.0 83 1.8 SW 17 26 9 14 1013.5 1013.4 0.0
25/01:00pm 18.7 16.9 16.1 85 1.5 SSW 20 26 11 14 1013.7 1013.6 0.0

Other Formats:

Comma delimited format used in spreadsheet applications
http://www.bom.gov.au/fwo/IDS60801/IDS60801.94813.axf

JavaScript Object Notation format (JSON) in row-major order
http://www.bom.gov.au/fwo/IDS60801/IDS60801.94813.json